Mackinaw City, MI (49701)

5:00 PM EST on December 09, 2016 (GMT -0500)
Mackinac Bridge | | Change Station
Active Advisory: Winter Weather Advisory

Elev 587 ft 45.79 °N, 84.73 °W | Updated 3 seconds ago

Overcast
Overcast
24.6 °F
Feels Like 17 °F
N
6.0
Wind Variable Wind from North

Today
High -- | Low -- °F
--% Chance of Precip.
Yesterday
High -- | Low -- °F
Precip. -- in
Pressure 30.32 in
Visibility 10.0 miles
Clouds Scattered Clouds 1600 ft
Overcast 6500 ft
Windchill 17 °F
Dew Point 19 °F
Humidity 81%
Rainfall Not available.
Snow Depth Not available.
8:08 AM 4:54 PM
Waxing Gibbous, 77% visible
METAR KMCD 092155Z AUTO 01004KT 10SM SCT016 OVC065 M06/M08 A3032 RMK AO2 T10561083
Pressure 30.32 in
Visibility 10.0 miles
Clouds Scattered Clouds 1600 ft
Overcast 6500 ft
Windchill 17 °F
Dew Point 19 °F
Humidity 81%
Rainfall Not available.
Snow Depth Not available.
8:08 AM 4:54 PM
Waxing Gibbous, 77% visible
METAR KMCD 092155Z AUTO 01004KT 10SM SCT016 OVC065 M06/M08 A3032 RMK AO2 T10561083

10-Day Weather Forecast

Almanac

Astronomy

Dec. 09, 2016 Rise Set
Actual Time
Civil Twilight
Nautical Twilight
Astronomical Twilight
Moon
Length of Visible Light
Length of Day
Tomorrow will be .
, % of the Moon is Illuminated

Today's Extremes

State Highs State Lows

Community

WunderPhotos

Upload Photos

1,956,535 photos uploaded!

WunderBlog® & News

Nearby

Air Quality

  Air Quality AQ Index Pollutant
Not available.

Snow Depth

Station Depth Elevation

Earthquake Activity

City Distance Mag. Time & Date
Minimum magnitude displayed is 2.5.

Coastal Water Temperatures

Place Temperature

Stations

Nearby Weather Stations

Station Location Temp. Windchill Dew Point Humidity Wind Precip. Elev Updated Type
                   

Watches & Warnings

Winter Weather Advisory
Issued: 2:15 PM EST Dec. 9, 2016 – National Weather Service

... Winter Weather Advisory now in effect until noon EST
Saturday...

The National Weather Service in Gaylord has issued a Winter
Weather Advisory... which is in effect until noon EST Saturday.
The Winter Storm Warning has been cancelled.

* Expect fluffy lake effect snow showers to continue... diminishing
around noon Saturday.

* The heaviest snowfall rates will occur between 7 PM this evening
and 12 am Saturday.

* Additional fluffy snow accumulations of 2 to 6 inches are
expected... with isolated totals of 8 inches possible where snow
bands remain most persistent.

* Look for reduced visibilities at times.

* Plan on difficult driving conditions.

Precautionary/preparedness actions...

A Winter Weather Advisory for fluffy snow means periods of fluffy
snow will cause primarily travel difficulties. Be prepared for
snow covered roads and limited visibilities... and use caution
while driving. For the latest Road conditions... go to the mdot
website at Michigan.Gov.


Msb